Time;durP1;ratioP1;P1;durP2;ratioP2;P2;SDS_P1;SDS_P2;PMS_P1;PMS_P2;Temp;Humidity;BMP_temperature;BMP_pressure;BME280_temperature;BME280_humidity;BME280_pressure;Samples;Min_cycle;Max_cycle;Signal;HPM_P1;HPM_P2
2022/12/30 00:02:23;;;;;;;33.50;4.63;;;6.60;99.90;;;;;;5059429;28;20119;-69
2022/12/30 00:04:50;;;;;;;33.72;4.30;;;6.60;99.90;;;;;;5059111;28;20045;-69
2022/12/30 00:07:18;;;;;;;33.90;4.78;;;6.60;99.90;;;;;;5059638;28;20057;-67
2022/12/30 00:09:45;;;;;;;28.30;4.20;;;6.50;99.90;;;;;;5060200;28;20139;-73
2022/12/30 00:34:10;;;;;;;32.80;5.22;;;6.50;99.90;;;;;;5040312;28;20061;-73
2022/12/30 00:36:37;;;;;;;28.08;5.00;;;6.40;99.90;;;;;;5058555;28;20053;-71
2022/12/30 00:39:04;;;;;;;28.05;4.13;;;6.40;99.90;;;;;;5059701;28;20049;-71
2022/12/30 00:44:15;;;;;;;26.77;3.97;;;6.40;99.90;;;;;;5058400;28;20049;-61
2022/12/30 00:46:42;;;;;;;37.65;5.00;;;6.30;99.90;;;;;;5058416;28;20060;-69
2022/12/30 00:57:24;;;;;;;25.30;4.35;;;6.30;99.90;;;;;;5058696;28;20057;-72
2022/12/30 00:59:50;;;;;;;21.95;4.20;;;6.20;99.90;;;;;;5056714;28;20110;-70
2022/12/30 01:02:17;;;;;;;32.67;4.60;;;6.20;99.90;;;;;;5055991;28;20049;-66
2022/12/30 01:04:48;;;;;;;31.13;4.13;;;6.20;99.90;;;;;;5059378;28;20102;-68
2022/12/30 01:07:18;;;;;;;34.95;4.85;;;6.20;99.90;;;;;;5039556;28;20112;-73
2022/12/30 01:09:45;;;;;;;29.50;4.97;;;6.20;99.90;;;;;;5055068;28;20056;-74
2022/12/30 01:12:12;;;;;;;35.70;4.53;;;6.10;99.90;;;;;;5059344;28;20080;-70
2022/12/30 01:14:39;;;;;;;32.40;4.45;;;6.20;99.90;;;;;;5058357;28;20053;-72
2022/12/30 01:17:07;;;;;;;27.20;3.85;;;6.10;99.90;;;;;;5057038;28;20500;-71
2022/12/30 01:19:34;;;;;;;25.08;4.07;;;6.10;99.90;;;;;;5060396;28;20048;-69
2022/12/30 01:22:02;;;;;;;25.75;3.80;;;6.00;99.90;;;;;;5058629;28;20075;-57
2022/12/30 01:24:29;;;;;;;28.08;3.85;;;6.00;99.90;;;;;;5057933;28;20450;-68
2022/12/30 01:26:56;;;;;;;26.88;3.95;;;6.00;99.90;;;;;;5056586;28;20048;-68
2022/12/30 01:29:24;;;;;;;27.95;4.20;;;6.00;99.90;;;;;;5057972;28;20080;-66
2022/12/30 01:31:50;;;;;;;29.50;3.95;;;6.00;99.90;;;;;;5057989;28;20057;-73
2022/12/30 01:34:17;;;;;;;32.25;4.38;;;6.00;99.90;;;;;;5058435;28;20091;-67
2022/12/30 01:36:44;;;;;;;29.80;4.07;;;6.00;99.90;;;;;;5051998;28;20107;-71
2022/12/30 01:39:12;;;;;;;29.02;4.65;;;6.00;99.90;;;;;;5048469;28;20088;-67
2022/12/30 01:41:39;;;;;;;26.67;3.88;;;6.00;99.90;;;;;;5057862;28;20045;-66
2022/12/30 01:44:46;;;;;;;36.45;4.78;;;6.00;99.90;;;;;;5059847;28;20095;-71
2022/12/30 01:47:14;;;;;;;33.38;4.20;;;6.00;99.90;;;;;;5039640;28;20050;-75
2022/12/30 01:49:43;;;;;;;29.80;4.13;;;5.90;99.90;;;;;;5055611;28;20087;-68
2022/12/30 01:52:09;;;;;;;32.08;4.28;;;5.90;99.90;;;;;;5059112;28;20049;-68
2022/12/30 01:54:37;;;;;;;24.67;4.18;;;5.90;99.90;;;;;;5056864;28;20568;-75
2022/12/30 01:57:05;;;;;;;28.48;3.92;;;5.90;99.90;;;;;;5058359;28;20044;-68
2022/12/30 01:59:31;;;;;;;28.88;4.13;;;5.90;99.90;;;;;;5057166;28;20481;-72
2022/12/30 02:01:58;;;;;;;25.38;4.18;;;5.90;99.90;;;;;;5058727;28;20083;-65
2022/12/30 02:04:28;;;;;;;26.20;4.22;;;5.90;99.90;;;;;;5057358;28;20088;-73
2022/12/30 02:06:59;;;;;;;37.58;4.82;;;5.90;99.90;;;;;;5058804;28;20048;-72
2022/12/30 02:09:26;;;;;;;23.05;4.28;;;6.00;99.90;;;;;;5056776;28;20533;-74
2022/12/30 02:11:54;;;;;;;30.40;4.72;;;5.90;99.90;;;;;;5055903;28;20083;-68
2022/12/30 02:14:21;;;;;;;31.50;4.65;;;5.90;99.90;;;;;;5056152;28;20093;-68
2022/12/30 02:16:51;;;;;;;28.70;4.60;;;5.90;99.90;;;;;;5057119;28;20505;-73
2022/12/30 02:19:40;;;;;;;31.00;4.88;;;5.90;99.90;;;;;;5056742;28;20092;-72
2022/12/30 02:22:10;;;;;;;40.25;5.38;;;5.80;99.90;;;;;;5048812;28;20053;-77
2022/12/30 02:25:15;;;;;;;29.27;4.85;;;5.80;99.90;;;;;;5055949;28;20160;-75
2022/12/30 02:27:56;;;;;;;28.20;4.00;;;5.80;99.90;;;;;;5050807;28;20519;-74
2022/12/30 02:30:23;;;;;;;32.20;4.63;;;5.70;99.90;;;;;;5058270;28;20459;-76
2022/12/30 02:33:11;;;;;;;32.80;4.55;;;5.80;99.90;;;;;;5042823;28;20416;-73
2022/12/30 02:35:45;;;;;;;22.65;3.88;;;5.80;99.90;;;;;;5057265;28;20057;-74
2022/12/30 02:38:19;;;;;;;37.05;4.57;;;5.80;99.90;;;;;;5058593;28;20052;-68
2022/12/30 02:46:18;;;;;;;26.08;4.15;;;5.70;99.90;;;;;;5050370;28;20477;-76
2022/12/30 02:48:47;;;;;;;30.17;5.10;;;5.70;99.90;;;;;;5058010;28;20095;-75
2022/12/30 02:53:59;;;;;;;30.45;5.53;;;5.70;99.90;;;;;;5054789;28;20061;-65
2022/12/30 02:56:25;;;;;;;25.63;4.05;;;5.70;99.90;;;;;;5054754;28;20072;-70
2022/12/30 03:03:56;;;;;;;25.83;4.47;;;5.60;99.90;;;;;;5056403;28;20056;-75
2022/12/30 03:04:31;;;;;;;20.25;3.75;;;5.60;99.90;;;;;;5059504;28;20045;-67
2022/12/30 03:07:12;;;;;;;28.65;4.60;;;5.70;99.90;;;;;;5061089;28;20056;-71
2022/12/30 03:11:12;;;;;;;32.93;3.77;;;5.60;99.90;;;;;;5055180;28;20132;-69
2022/12/30 03:12:37;;;;;;;24.55;3.42;;;5.60;99.90;;;;;;5056415;28;20314;-72
2022/12/30 03:15:09;;;;;;;26.10;4.20;;;5.60;99.90;;;;;;5055298;28;20045;-59
2022/12/30 03:17:38;;;;;;;29.63;4.60;;;5.60;99.90;;;;;;5058373;28;20551;-73
2022/12/30 03:20:08;;;;;;;24.50;3.97;;;5.70;99.90;;;;;;5055409;28;20057;-72
2022/12/30 03:28:05;;;;;;;30.13;3.95;;;5.60;99.90;;;;;;5055430;28;20057;-74
2022/12/30 03:30:32;;;;;;;29.40;3.83;;;5.60;99.90;;;;;;5054940;28;20095;-48
2022/12/30 03:32:58;;;;;;;22.00;3.55;;;5.60;99.90;;;;;;5043942;28;20083;-74
2022/12/30 03:35:26;;;;;;;31.45;4.22;;;5.60;99.90;;;;;;5055669;28;20071;-74
2022/12/30 03:37:54;;;;;;;24.50;3.80;;;5.60;99.90;;;;;;5057157;28;20049;-65
2022/12/30 03:40:22;;;;;;;22.15;3.63;;;5.60;99.90;;;;;;5056561;28;20114;-74
2022/12/30 03:42:49;;;;;;;24.40;4.13;;;5.60;99.90;;;;;;5057563;28;20393;-63
2022/12/30 03:45:17;;;;;;;25.38;3.72;;;5.60;99.90;;;;;;5056591;28;20052;-75
2022/12/30 03:47:44;;;;;;;33.83;4.50;;;5.60;99.90;;;;;;5057507;28;20049;-71
2022/12/30 03:50:11;;;;;;;31.80;4.22;;;5.60;99.90;;;;;;5056531;28;20051;-70
2022/12/30 03:52:39;;;;;;;30.05;4.38;;;5.50;99.90;;;;;;5058548;28;20052;-60
2022/12/30 03:55:07;;;;;;;28.20;4.45;;;5.50;99.90;;;;;;5055816;28;20053;-74
2022/12/30 03:57:33;;;;;;;28.13;4.05;;;5.50;99.90;;;;;;5055249;28;20080;-63
2022/12/30 04:00:00;;;;;;;20.77;4.63;;;5.40;99.90;;;;;;5056618;28;20084;-67
2022/12/30 04:02:27;;;;;;;25.92;4.13;;;5.40;99.90;;;;;;5055604;28;20053;-64
2022/12/30 04:04:54;;;;;;;29.02;4.22;;;5.30;99.90;;;;;;5055930;28;20524;-69
2022/12/30 04:07:21;;;;;;;29.83;4.38;;;5.40;99.90;;;;;;5055255;28;20060;-75
2022/12/30 04:09:49;;;;;;;23.67;3.97;;;5.40;99.90;;;;;;5055207;28;20110;-74
2022/12/30 04:12:16;;;;;;;24.40;4.13;;;5.30;99.90;;;;;;5057992;28;20456;-74
2022/12/30 04:14:43;;;;;;;26.20;4.00;;;5.30;99.90;;;;;;5056303;28;20068;-67
2022/12/30 04:17:10;;;;;;;30.52;4.45;;;5.30;99.90;;;;;;5055722;28;20049;-67
2022/12/30 04:19:36;;;;;;;24.23;4.40;;;5.30;99.90;;;;;;5056696;28;20044;-77
2022/12/30 04:22:03;;;;;;;26.67;4.38;;;5.30;99.90;;;;;;5057010;28;20077;-77
2022/12/30 04:24:30;;;;;;;19.15;4.57;;;5.30;99.90;;;;;;5058914;28;20052;-67
2022/12/30 04:26:58;;;;;;;21.02;4.13;;;5.30;99.90;;;;;;5059994;28;20390;-72
2022/12/30 04:29:25;;;;;;;26.52;4.53;;;5.20;99.90;;;;;;5061321;28;20044;-77
2022/12/30 04:31:52;;;;;;;23.10;3.85;;;5.30;99.90;;;;;;5054810;28;20049;-70
2022/12/30 04:34:18;;;;;;;19.35;3.72;;;5.20;99.90;;;;;;5059205;28;20075;-66
2022/12/30 04:36:45;;;;;;;22.52;4.40;;;5.20;99.90;;;;;;5061449;28;20095;-71
2022/12/30 04:39:12;;;;;;;32.33;4.65;;;5.20;99.90;;;;;;5059185;28;20569;-67
2022/12/30 04:41:39;;;;;;;22.60;4.70;;;5.20;99.90;;;;;;5050350;28;20053;-68
2022/12/30 04:44:07;;;;;;;18.48;3.92;;;5.20;99.90;;;;;;5060697;28;20079;-72
2022/12/30 04:46:34;;;;;;;21.33;4.47;;;5.20;99.90;;;;;;5075722;28;20056;-69
2022/12/30 04:49:01;;;;;;;21.33;4.70;;;5.20;99.90;;;;;;5063797;28;20091;-75
2022/12/30 04:51:27;;;;;;;20.08;4.03;;;5.20;99.90;;;;;;5059008;28;20057;-72
2022/12/30 04:53:54;;;;;;;25.83;4.65;;;5.20;99.90;;;;;;5060254;28;20444;-51
2022/12/30 04:56:21;;;;;;;26.13;4.80;;;5.20;99.90;;;;;;5059419;28;20080;-65
2022/12/30 04:58:48;;;;;;;20.73;3.95;;;5.20;99.90;;;;;;5061841;28;20057;-76
2022/12/30 05:01:19;;;;;;;21.20;4.63;;;5.20;99.90;;;;;;5060093;28;20081;-76
2022/12/30 05:03:46;;;;;;;34.65;4.85;;;5.10;99.90;;;;;;5060657;28;20390;-77
2022/12/30 05:06:13;;;;;;;26.15;4.65;;;5.20;99.90;;;;;;5060521;28;20084;-75
2022/12/30 05:08:40;;;;;;;30.00;5.30;;;5.10;99.90;;;;;;5059354;28;20103;-71
2022/12/30 05:11:07;;;;;;;25.63;4.88;;;5.10;99.90;;;;;;5050480;28;20044;-70
2022/12/30 05:13:33;;;;;;;25.13;4.70;;;5.10;99.90;;;;;;5061060;28;20095;-72
2022/12/30 05:16:00;;;;;;;21.35;4.38;;;5.10;99.90;;;;;;5059784;28;20083;-74
2022/12/30 05:18:28;;;;;;;30.38;4.47;;;5.10;99.90;;;;;;5060993;28;20276;-70
2022/12/30 05:20:55;;;;;;;24.63;5.00;;;5.00;99.90;;;;;;5059966;28;20052;-61
2022/12/30 05:26:15;;;;;;;22.60;4.60;;;5.00;99.90;;;;;;5058341;28;20049;-71
2022/12/30 05:28:42;;;;;;;24.30;4.25;;;5.00;99.90;;;;;;5058877;28;20068;-73
2022/12/30 05:31:09;;;;;;;22.58;4.07;;;5.00;99.90;;;;;;5061315;28;20045;-75
2022/12/30 05:33:37;;;;;;;21.63;4.35;;;4.90;99.90;;;;;;5057970;28;20077;-72
2022/12/30 05:36:04;;;;;;;18.50;4.20;;;5.00;99.90;;;;;;5060569;28;20482;-76
2022/12/30 05:38:31;;;;;;;21.00;4.20;;;5.00;99.90;;;;;;5061212;28;20081;-58
2022/12/30 05:40:58;;;;;;;28.35;4.15;;;4.90;99.90;;;;;;5056146;28;20213;-73
2022/12/30 05:43:25;;;;;;;30.55;4.63;;;4.90;99.90;;;;;;5058854;28;20079;-72
2022/12/30 05:45:52;;;;;;;18.38;4.38;;;4.90;99.90;;;;;;5059058;28;20116;-72
2022/12/30 05:48:24;;;;;;;24.83;3.95;;;5.00;99.90;;;;;;5060709;28;20091;-72
2022/12/30 05:50:52;;;;;;;22.83;4.45;;;4.90;99.90;;;;;;5058995;28;20085;-70
2022/12/30 05:53:18;;;;;;;22.50;4.22;;;5.00;99.90;;;;;;5060163;28;20386;-73
2022/12/30 05:55:45;;;;;;;24.27;3.88;;;4.90;99.90;;;;;;5059144;28;20048;-66
2022/12/30 05:58:12;;;;;;;26.60;4.43;;;5.00;99.90;;;;;;5052765;28;20505;-72
2022/12/30 06:00:39;;;;;;;27.30;4.57;;;5.00;99.90;;;;;;5057576;28;20036;-62
2022/12/30 06:03:06;;;;;;;18.30;3.88;;;4.90;99.90;;;;;;5059249;28;20055;-71
2022/12/30 06:05:33;;;;;;;23.88;4.07;;;5.00;99.90;;;;;;5058513;28;20405;-66
2022/12/30 06:08:01;;;;;;;26.25;4.10;;;4.90;99.90;;;;;;5058150;28;20075;-71
2022/12/30 06:10:28;;;;;;;22.73;3.58;;;5.00;99.90;;;;;;5066771;28;20060;-68
2022/12/30 06:12:54;;;;;;;22.20;4.25;;;5.00;99.90;;;;;;5069300;28;20057;-71
2022/12/30 06:15:21;;;;;;;24.05;3.90;;;4.90;99.90;;;;;;5056833;28;20427;-63
2022/12/30 06:17:48;;;;;;;21.02;4.38;;;5.10;99.90;;;;;;5060016;28;20087;-69
2022/12/30 06:20:15;;;;;;;26.52;3.70;;;4.90;99.90;;;;;;5058802;28;20052;-69
2022/12/30 06:22:42;;;;;;;25.23;4.03;;;4.90;99.90;;;;;;5057416;28;20091;-67
2022/12/30 06:25:10;;;;;;;22.40;4.20;;;4.90;99.90;;;;;;5057527;28;20061;-60
2022/12/30 06:27:37;;;;;;;29.15;4.28;;;4.90;99.90;;;;;;5057975;28;20049;-64
2022/12/30 06:30:04;;;;;;;26.67;3.55;;;4.90;99.90;;;;;;5057796;28;20550;-66
2022/12/30 06:32:31;;;;;;;24.30;3.88;;;4.90;99.90;;;;;;5058034;28;20095;-73
2022/12/30 06:34:58;;;;;;;19.02;3.72;;;4.80;99.90;;;;;;5057686;28;20496;-67
2022/12/30 06:37:25;;;;;;;23.58;4.30;;;4.90;99.90;;;;;;5056615;28;20052;-65
2022/12/30 06:39:52;;;;;;;16.42;3.25;;;4.90;99.90;;;;;;5056862;28;20084;-65
2022/12/30 06:42:20;;;;;;;24.95;5.50;;;4.90;99.90;;;;;;5057667;28;20110;-67
2022/12/30 06:44:47;;;;;;;24.05;4.28;;;4.80;99.90;;;;;;5073462;28;20061;-47
2022/12/30 06:47:13;;;;;;;21.45;3.58;;;4.80;99.90;;;;;;5057155;28;20089;-71
2022/12/30 06:49:40;;;;;;;20.45;3.95;;;4.80;99.90;;;;;;5058554;28;20045;-66
2022/12/30 06:52:07;;;;;;;20.80;4.20;;;4.80;99.90;;;;;;5058758;28;20110;-71
2022/12/30 06:54:34;;;;;;;27.00;3.90;;;4.80;99.90;;;;;;5056666;28;20095;-60
2022/12/30 06:57:00;;;;;;;24.88;4.55;;;4.80;99.90;;;;;;5059323;28;20505;-66
2022/12/30 06:59:29;;;;;;;27.20;3.80;;;4.70;99.90;;;;;;5055073;28;20511;-62
2022/12/30 07:01:55;;;;;;;30.77;4.50;;;4.70;99.90;;;;;;5057460;28;20049;-72
2022/12/30 07:04:22;;;;;;;17.73;2.55;;;4.80;99.90;;;;;;5056424;28;20084;-74
2022/12/30 07:06:49;;;;;;;26.73;4.57;;;4.70;99.90;;;;;;5057384;28;20049;-68
2022/12/30 07:09:16;;;;;;;18.45;3.80;;;4.80;99.90;;;;;;5057801;28;20056;-72
2022/12/30 07:11:43;;;;;;;26.55;3.88;;;4.70;99.90;;;;;;5054712;28;20045;-71
2022/12/30 07:14:10;;;;;;;24.52;3.70;;;4.70;99.90;;;;;;5057027;28;20124;-64
2022/12/30 07:16:38;;;;;;;23.50;3.88;;;4.80;99.90;;;;;;5055965;28;20053;-72
2022/12/30 07:19:05;;;;;;;30.60;4.03;;;4.70;99.90;;;;;;5058093;28;20049;-65
2022/12/30 07:21:32;;;;;;;24.85;4.03;;;4.80;99.90;;;;;;5058654;28;20057;-72
2022/12/30 07:23:59;;;;;;;26.55;3.95;;;4.70;99.90;;;;;;5056904;28;20061;-69
2022/12/30 07:26:26;;;;;;;23.38;3.95;;;4.70;99.90;;;;;;5056847;28;20068;-70
2022/12/30 07:28:54;;;;;;;20.67;3.97;;;4.70;99.90;;;;;;5055945;28;20049;-67
2022/12/30 07:31:21;;;;;;;24.88;4.05;;;4.70;99.90;;;;;;5056758;28;20053;-72
2022/12/30 07:33:49;;;;;;;22.33;3.78;;;4.70;99.90;;;;;;5058776;28;20103;-67
2022/12/30 07:36:16;;;;;;;19.42;3.88;;;4.80;99.90;;;;;;5056818;28;20053;-75
2022/12/30 07:38:42;;;;;;;28.50;4.43;;;4.70;99.90;;;;;;5057139;28;20088;-74
2022/12/30 07:41:09;;;;;;;19.60;4.03;;;4.70;99.90;;;;;;5057926;28;20049;-60
2022/12/30 07:43:36;;;;;;;35.45;4.95;;;4.70;99.90;;;;;;5046361;28;20049;-69
2022/12/30 07:46:06;;;;;;;23.95;4.80;;;4.70;99.90;;;;;;5053365;28;20056;-47
2022/12/30 07:48:33;;;;;;;28.40;4.95;;;4.70;99.90;;;;;;5055014;28;20049;-74
2022/12/30 07:51:05;;;;;;;31.98;4.82;;;4.70;99.90;;;;;;5064508;28;20045;-65
2022/12/30 07:53:32;;;;;;;23.20;4.35;;;4.70;99.90;;;;;;5063443;28;20100;-66
2022/12/30 07:55:59;;;;;;;34.88;5.00;;;4.70;99.90;;;;;;5056606;28;20087;-67
2022/12/30 07:58:26;;;;;;;25.08;5.50;;;4.70;99.90;;;;;;5057664;28;20080;-72
2022/12/30 08:00:53;;;;;;;21.38;4.53;;;4.70;99.90;;;;;;5063045;28;20053;-75
2022/12/30 08:03:20;;;;;;;24.48;4.40;;;4.70;99.90;;;;;;5059580;28;20080;-71
2022/12/30 08:05:46;;;;;;;22.60;3.83;;;4.70;99.90;;;;;;5060338;28;20076;-67
2022/12/30 08:08:15;;;;;;;28.10;3.63;;;4.70;99.90;;;;;;5068084;28;20049;-73
2022/12/30 08:10:41;;;;;;;29.17;4.65;;;4.80;99.90;;;;;;5054128;28;20065;-66
2022/12/30 08:13:08;;;;;;;19.98;4.30;;;4.80;99.90;;;;;;5059764;28;20053;-71
2022/12/30 08:15:35;;;;;;;25.67;4.97;;;4.80;99.90;;;;;;5058193;28;20412;-72
2022/12/30 08:18:02;;;;;;;30.30;4.45;;;4.90;99.90;;;;;;5058021;28;20106;-71
2022/12/30 08:20:28;;;;;;;22.13;4.13;;;4.80;99.90;;;;;;5051804;28;20558;-58
2022/12/30 08:22:58;;;;;;;41.28;4.88;;;4.80;99.90;;;;;;5059577;28;20045;-49
2022/12/30 08:25:26;;;;;;;25.83;4.78;;;4.80;99.90;;;;;;5074834;28;20057;-66
2022/12/30 08:27:53;;;;;;;24.95;4.50;;;4.80;99.90;;;;;;5057123;28;20077;-71
2022/12/30 08:30:20;;;;;;;29.65;5.18;;;4.90;99.90;;;;;;5058447;28;20045;-70
2022/12/30 08:32:47;;;;;;;18.75;3.72;;;4.90;99.90;;;;;;5057284;28;20091;-70
2022/12/30 08:35:14;;;;;;;32.33;5.70;;;4.90;99.90;;;;;;5058347;28;20076;-70
2022/12/30 08:37:41;;;;;;;23.42;5.40;;;4.90;99.90;;;;;;5066863;28;20075;-64
2022/12/30 08:40:09;;;;;;;24.77;4.95;;;4.90;99.90;;;;;;5058485;28;20421;-62
2022/12/30 08:42:37;;;;;;;25.50;5.40;;;5.00;99.90;;;;;;5055590;28;20095;-65
2022/12/30 08:45:05;;;;;;;23.27;4.85;;;5.00;99.90;;;;;;5051620;28;20436;-70
2022/12/30 08:47:32;;;;;;;31.48;4.90;;;5.00;99.90;;;;;;5057582;28;20084;-72
2022/12/30 08:49:59;;;;;;;28.73;7.40;;;5.00;99.90;;;;;;5060075;28;20048;-76
2022/12/30 08:52:27;;;;;;;28.77;5.85;;;5.00;99.90;;;;;;5060008;28;20049;-65
2022/12/30 08:54:53;;;;;;;26.63;5.35;;;5.10;99.90;;;;;;5061076;28;20500;-70
2022/12/30 08:57:20;;;;;;;16.08;5.10;;;5.10;99.90;;;;;;5060151;28;20057;-73
2022/12/30 08:59:49;;;;;;;29.83;5.38;;;5.10;99.90;;;;;;5059678;28;20044;-73
2022/12/30 09:02:15;;;;;;;19.73;4.85;;;5.10;99.90;;;;;;5059569;28;20053;-61
2022/12/30 09:04:42;;;;;;;25.00;5.13;;;5.10;99.90;;;;;;5059250;28;20125;-76
2022/12/30 09:07:09;;;;;;;20.83;5.45;;;5.20;99.90;;;;;;5061481;28;20048;-71
2022/12/30 09:09:36;;;;;;;22.13;5.25;;;5.30;99.90;;;;;;5058050;28;20065;-75
2022/12/30 09:12:03;;;;;;;33.95;5.68;;;5.30;99.90;;;;;;5059735;28;20072;-68
2022/12/30 09:14:30;;;;;;;41.97;12.40;;;5.30;99.90;;;;;;5059601;28;20077;-64
2022/12/30 09:16:58;;;;;;;29.48;9.23;;;5.40;99.90;;;;;;5057399;28;20091;-73
2022/12/30 09:19:25;;;;;;;23.27;6.00;;;5.40;99.90;;;;;;5060488;28;20504;-75
2022/12/30 09:21:52;;;;;;;28.27;7.38;;;5.40;99.90;;;;;;5060451;28;20102;-66
2022/12/30 09:24:18;;;;;;;15.43;4.13;;;5.40;99.90;;;;;;5057191;28;20053;-58
2022/12/30 09:26:45;;;;;;;23.23;5.93;;;5.50;99.90;;;;;;5059444;28;20092;-69
2022/12/30 09:29:17;;;;;;;21.48;5.25;;;5.50;99.90;;;;;;5058797;28;20071;-72
2022/12/30 09:31:44;;;;;;;26.13;6.47;;;5.60;99.90;;;;;;5057519;28;20045;-68
2022/12/30 09:34:12;;;;;;;20.08;6.93;;;5.60;99.90;;;;;;5058036;28;20040;-74
2022/12/30 09:36:39;;;;;;;17.70;4.32;;;5.70;99.90;;;;;;5058716;28;20067;-70
2022/12/30 09:39:06;;;;;;;18.10;4.80;;;5.70;99.90;;;;;;5051434;28;20056;-73
2022/12/30 09:44:26;;;;;;;17.40;4.35;;;5.70;99.90;;;;;;5057751;28;20132;-68
2022/12/30 09:46:55;;;;;;;19.17;3.95;;;5.80;99.90;;;;;;5058908;28;20068;-68
2022/12/30 09:49:26;;;;;;;23.77;4.20;;;5.80;99.90;;;;;;5057646;28;20090;-67
2022/12/30 09:51:54;;;;;;;18.35;5.00;;;5.80;99.90;;;;;;5058548;28;20045;-74
2022/12/30 09:54:22;;;;;;;19.65;4.63;;;5.90;99.90;;;;;;5059123;28;20098;-72
2022/12/30 09:56:49;;;;;;;22.45;6.50;;;5.90;99.90;;;;;;5058917;28;20060;-63
2022/12/30 09:59:18;;;;;;;20.67;5.22;;;6.00;99.90;;;;;;5084410;28;20068;-62
2022/12/30 10:01:46;;;;;;;23.17;6.53;;;6.00;99.90;;;;;;5064762;28;20037;-69
2022/12/30 10:04:15;;;;;;;17.90;5.15;;;6.00;99.90;;;;;;5056658;28;20084;-73
2022/12/30 10:06:47;;;;;;;15.45;3.85;;;6.00;99.90;;;;;;5055630;28;20114;-72
2022/12/30 10:09:40;;;;;;;24.83;4.57;;;6.10;99.90;;;;;;5048989;28;20477;-70
2022/12/30 10:12:24;;;;;;;23.40;6.53;;;6.10;99.90;;;;;;5054263;28;20049;-59
2022/12/30 10:14:55;;;;;;;16.73;4.10;;;6.20;99.90;;;;;;5054858;28;20052;-70
2022/12/30 10:17:31;;;;;;;19.17;5.10;;;6.10;99.90;;;;;;5055539;28;20275;-64
2022/12/30 10:20:03;;;;;;;14.80;3.75;;;6.20;99.90;;;;;;5053267;28;20446;-74
2022/12/30 10:22:34;;;;;;;24.52;4.90;;;6.20;99.90;;;;;;5055793;28;20053;-73
2022/12/30 10:25:11;;;;;;;20.63;3.72;;;6.30;99.90;;;;;;5057212;28;20071;-62
2022/12/30 10:27:40;;;;;;;14.15;3.30;;;6.30;99.90;;;;;;5049514;28;20087;-56
2022/12/30 10:30:13;;;;;;;11.27;3.65;;;6.40;99.90;;;;;;5057524;28;20053;-69
2022/12/30 10:32:40;;;;;;;12.93;2.80;;;6.40;99.90;;;;;;5052372;28;20037;-62
2022/12/30 10:35:14;;;;;;;17.40;5.18;;;6.40;99.90;;;;;;5055264;28;20049;-68
2022/12/30 10:37:42;;;;;;;13.20;4.72;;;6.50;99.90;;;;;;5057346;28;20077;-64
2022/12/30 10:40:10;;;;;;;17.88;5.25;;;6.60;99.90;;;;;;5056724;28;20451;-54
2022/12/30 10:42:54;;;;;;;14.40;3.88;;;6.60;99.90;;;;;;5057486;28;20087;-72
2022/12/30 10:45:38;;;;;;;19.10;4.10;;;6.60;99.90;;;;;;5057191;28;20049;-60
2022/12/30 10:48:17;;;;;;;15.32;3.65;;;6.60;99.90;;;;;;5044244;28;20052;-56
2022/12/30 10:50:45;;;;;;;15.57;3.70;;;6.70;99.90;;;;;;5048264;28;20107;-70
2022/12/30 10:53:16;;;;;;;11.13;3.20;;;6.70;99.90;;;;;;5057360;28;20087;-68
2022/12/30 10:55:47;;;;;;;14.50;4.03;;;6.80;99.90;;;;;;5055350;28;20084;-66
2022/12/30 10:58:18;;;;;;;14.90;3.70;;;6.80;99.90;;;;;;5058569;28;20492;-71
2022/12/30 11:00:44;;;;;;;9.20;3.00;;;6.80;99.90;;;;;;5055404;28;20041;-71
2022/12/30 11:03:16;;;;;;;13.20;2.83;;;6.90;99.90;;;;;;5055812;28;20465;-63
2022/12/30 11:05:43;;;;;;;14.35;2.97;;;6.90;99.90;;;;;;5054571;28;20424;-73
2022/12/30 11:08:20;;;;;;;14.57;3.67;;;6.90;99.90;;;;;;5046172;28;20049;-69
2022/12/30 11:10:59;;;;;;;11.75;3.20;;;7.00;99.90;;;;;;5044562;28;20424;-63
2022/12/30 11:16:11;;;;;;;11.57;2.72;;;7.00;99.90;;;;;;5051134;28;20049;-60
2022/12/30 11:18:38;;;;;;;10.88;2.80;;;7.10;99.90;;;;;;5050269;28;20049;-73
2022/12/30 11:21:06;;;;;;;9.40;2.58;;;7.10;99.90;;;;;;5054488;28;20202;-69
2022/12/30 11:23:35;;;;;;;12.63;3.55;;;7.10;99.90;;;;;;5054535;28;20469;-67
2022/12/30 11:26:03;;;;;;;14.30;3.03;;;7.20;99.90;;;;;;5051554;28;20489;-69
2022/12/30 11:28:32;;;;;;;22.35;9.35;;;7.20;99.90;;;;;;5064906;28;20103;-57
2022/12/30 11:31:02;;;;;;;10.95;2.65;;;7.20;99.90;;;;;;5069029;28;20057;-65
2022/12/30 11:33:30;;;;;;;7.50;2.63;;;7.20;99.90;;;;;;5053156;28;20382;-67
2022/12/30 11:36:11;;;;;;;9.50;2.45;;;7.30;99.90;;;;;;5057415;28;20056;-69
2022/12/30 11:38:40;;;;;;;11.60;2.78;;;7.30;99.90;;;;;;5055719;28;20045;-59
2022/12/30 11:41:22;;;;;;;13.32;2.67;;;7.30;99.90;;;;;;5051329;28;20077;-68
2022/12/30 11:43:49;;;;;;;12.18;2.45;;;7.40;99.90;;;;;;5037771;28;20046;-67
2022/12/30 11:46:17;;;;;;;21.23;4.30;;;7.40;99.90;;;;;;5038843;28;20448;-65
2022/12/30 11:48:46;;;;;;;12.95;3.75;;;7.40;99.90;;;;;;5049778;28;20053;-61
2022/12/30 11:51:16;;;;;;;13.25;3.65;;;7.40;99.90;;;;;;5056613;28;20091;-68
2022/12/30 11:53:44;;;;;;;12.52;2.40;;;7.50;99.90;;;;;;5068580;28;20083;-68
2022/12/30 11:56:11;;;;;;;9.80;2.85;;;7.50;99.90;;;;;;5061093;28;20084;-70
2022/12/30 11:58:38;;;;;;;12.75;4.75;;;7.60;99.90;;;;;;5054962;28;20087;-62
2022/12/30 12:01:06;;;;;;;14.68;4.10;;;7.60;99.90;;;;;;5056648;28;20090;-71
2022/12/30 12:03:33;;;;;;;15.10;3.28;;;7.60;99.90;;;;;;5050581;28;20059;-68
2022/12/30 12:06:04;;;;;;;10.57;3.15;;;7.60;99.90;;;;;;5053657;28;20194;-62
2022/12/30 12:08:33;;;;;;;;;;;7.60;99.90;;;;;;5049025;28;20081;-67
2022/12/30 12:11:02;;;;;;;10.10;3.33;;;7.70;99.90;;;;;;5051737;28;19921;-58
2022/12/30 12:13:32;;;;;;;9.75;2.83;;;7.70;99.90;;;;;;5048006;28;20123;-68
2022/12/30 12:15:59;;;;;;;12.05;2.85;;;7.80;99.90;;;;;;5054054;28;20073;-62
2022/12/30 12:18:28;;;;;;;8.23;3.00;;;7.70;99.90;;;;;;5049986;28;20061;-66
2022/12/30 12:21:00;;;;;;;11.23;2.40;;;7.80;99.90;;;;;;5048963;28;20091;-67
2022/12/30 12:23:31;;;;;;;10.48;3.70;;;7.80;99.90;;;;;;5047855;28;20045;-68
2022/12/30 12:26:04;;;;;;;8.10;2.03;;;7.80;99.90;;;;;;5045685;28;20052;-67
2022/12/30 12:28:31;;;;;;;10.50;2.35;;;7.80;99.90;;;;;;5056569;28;20126;-66
2022/12/30 12:31:12;;;;;;;13.68;3.25;;;7.90;99.90;;;;;;5052776;28;20450;-66
2022/12/30 12:33:42;;;;;;;8.73;2.08;;;7.90;99.90;;;;;;5057247;28;20371;-65
2022/12/30 12:36:16;;;;;;;12.93;2.60;;;8.00;99.90;;;;;;5037927;28;20053;-66
2022/12/30 12:38:50;;;;;;;16.38;4.72;;;8.00;99.90;;;;;;5051511;28;20122;-67
2022/12/30 12:41:41;;;;;;;19.48;5.68;;;8.00;99.90;;;;;;5040090;28;20080;-66
2022/12/30 12:44:41;;;;;;;18.25;6.90;;;8.00;99.90;;;;;;5047259;28;20091;-60
2022/12/30 12:47:17;;;;;;;10.30;3.40;;;8.00;99.90;;;;;;5041757;28;20052;-68
2022/12/30 12:50:00;;;;;;;12.00;3.67;;;8.10;99.90;;;;;;5042074;28;20401;-65
2022/12/30 12:52:32;;;;;;;15.65;5.05;;;8.10;99.90;;;;;;5052272;28;20041;-64
2022/12/30 12:55:19;;;;;;;11.85;3.10;;;8.10;99.90;;;;;;5052341;28;20057;-59
2022/12/30 12:57:51;;;;;;;9.77;2.60;;;8.10;99.90;;;;;;5054014;28;20080;-65
2022/12/30 13:00:19;;;;;;;7.20;2.65;;;8.10;99.90;;;;;;5053043;28;20080;-64
2022/12/30 13:03:16;;;;;;;12.73;3.08;;;8.10;99.90;;;;;;5047206;28;20049;-64
2022/12/30 13:05:47;;;;;;;10.40;3.60;;;8.20;99.90;;;;;;5050406;28;20103;-53
2022/12/30 13:08:18;;;;;;;6.40;3.03;;;8.20;99.90;;;;;;5051170;28;20519;-60
2022/12/30 13:10:46;;;;;;;9.48;3.08;;;8.20;99.90;;;;;;5047785;28;20144;-63
2022/12/30 13:13:17;;;;;;;10.98;2.88;;;8.20;99.90;;;;;;5050556;28;20072;-61
2022/12/30 13:15:45;;;;;;;6.22;1.80;;;8.30;99.90;;;;;;5052985;28;20041;-65
2022/12/30 13:18:15;;;;;;;8.60;2.42;;;8.30;99.90;;;;;;5053136;28;20102;-65
2022/12/30 13:20:46;;;;;;;16.00;4.35;;;8.40;99.90;;;;;;5053213;28;20143;-64
2022/12/30 13:23:13;;;;;;;10.98;2.63;;;8.40;99.90;;;;;;5055401;28;20052;-64
2022/12/30 13:25:41;;;;;;;10.88;2.80;;;8.40;99.90;;;;;;5052398;28;20049;-63
2022/12/30 13:28:13;;;;;;;11.45;2.83;;;8.40;99.90;;;;;;5054640;28;20470;-61
2022/12/30 13:30:45;;;;;;;9.60;2.08;;;8.50;99.90;;;;;;5053954;28;20049;-63
2022/12/30 13:33:14;;;;;;;13.38;3.05;;;8.50;99.90;;;;;;5049723;28;20126;-64
2022/12/30 13:35:50;;;;;;;9.10;2.53;;;8.50;99.90;;;;;;5042377;28;20077;-56
2022/12/30 13:38:25;;;;;;;9.15;3.03;;;8.50;99.90;;;;;;5048851;28;20057;-58
2022/12/30 13:40:57;;;;;;;9.70;1.85;;;8.50;99.90;;;;;;5050859;28;20052;-63
2022/12/30 13:43:29;;;;;;;13.68;3.20;;;8.50;99.90;;;;;;5051659;28;20128;-61
2022/12/30 13:45:57;;;;;;;7.97;2.00;;;8.60;99.90;;;;;;5052603;28;20132;-64
2022/12/30 13:48:25;;;;;;;13.35;2.50;;;8.60;99.90;;;;;;5048949;28;20045;-64
2022/12/30 13:50:59;;;;;;;18.58;6.75;;;8.60;99.90;;;;;;5050319;28;20053;-63
2022/12/30 13:53:39;;;;;;;10.77;2.50;;;8.60;99.90;;;;;;5052842;28;20394;-63
2022/12/30 13:56:06;;;;;;;9.73;3.08;;;8.60;99.90;;;;;;5049021;28;20106;-64
2022/12/30 13:58:34;;;;;;;7.18;2.22;;;8.70;99.90;;;;;;5048786;28;20106;-58